x

South Kodiak - 310nm Ssw Of Kodiak, Ak (46066) Wave Buoy

2:50pm - Wed 27th Jul 2016 All times are UTC.

  • Sig Wave height 4.3ft
  • Swell Direction
  • Peak Period 7s
  • Average Period 5s
  • Wind
    11mph, 13mph gusts
  • Sea Temp 55°f
  • Air Temp 55°f
  • Sea Pressure 1005.1mb

More Historic Weather Station data

Upgrade to MSW Pro to gain access to the past 30 days of data for over 8000 Wavebouys and Weather Stations around the globe.

Join Pro

Comparision Forecast

View Surf forecast
   
Wed 07/27 2:50pm 4.5ft 7s 5s 11 13 mph 1005.1mb 55f 55f
1:50pm 4ft 14s 5s 11 13 mph 1005mb 55f 55f
12:50pm 4ft 14s 5s 13 16 mph 1005mb 55f 55f
11:50am 4.5ft 14s 5s 11 13 mph 1005.2mb 55f 54f
10:50am 4ft 15s 5s 13
mph
1005.3mb 55f 55f
9:50am 3.5ft 14s 6s 11 13 mph 1005.2mb 55f 55f
8:50am 4ft 14s 5s 13 16 mph 1005.4mb 55f 55f
7:50am 4ft 14s 5s 13 16 mph 1005.3mb 55f 54f
6:50am 3.5ft 14s 5s 13 18 mph 1005.4mb 55f 54f
5:50am 4.5ft 6s 5s 13 16 mph 1005mb 55f 55f
4:50am 4.5ft 6s 5s 13 16 mph 1004.9mb 55f 55f
3:50am 4.5ft 6s 5s 11 13 mph 1004.8mb 55f 55f
2:50am 4.5ft 7s 6s 11 13 mph 1004.9mb 55f 55f
1:50am 5ft 7s 6s 13 16 mph 1004.9mb 55f 55f
12:50am 4.5ft 7s 6s 13 16 mph 1005.1mb 55f 55f
Tue 07/26 11:50pm 4.5ft 7s 6s 11 13 mph 1005.2mb 55f 56f
10:50pm 4.5ft 7s 6s 13 16 mph 1005.2mb 55f 55f
9:50pm 4.5ft 15s 6s 11 16 mph 1005mb 55f 55f
8:50pm 4ft 8s 6s 13
mph
1005mb 55f 55f
7:50pm 3.5ft 7s 6s 11 16 mph 1004.8mb 55f 55f
6:50pm 4ft 15s 6s 11 13 mph 1004.6mb 55f 55f
5:50pm 4ft 7s 6s 9
mph
1004.3mb 55f 55f
4:50pm 4.5ft 7s 6s 7 9 mph 1003.9mb 55f 55f
3:50pm 4.5ft 8s 6s 7 9 mph 1003.7mb 55f 55f
2:50pm 5ft 7s 6s 7 9 mph 1003.3mb 55f 54f
1:50pm 4.5ft 8s 6s 9 11 mph 1003mb 55f 54f
12:50pm 3.5ft 8s 6s 9 11 mph 1002.8mb 55f 55f
11:50am 3.5ft 15s 6s 11 13 mph 1002.9mb 55f 54f
10:50am 3.5ft 15s 6s 9 13 mph 1002.9mb 55f 55f
9:50am 3.5ft 15s 6s 11 13 mph 1002.8mb 55f 55f
8:50am 3.5ft 14s 6s 9 11 mph 1002.4mb 55f 55f
7:50am 3.5ft 15s 6s 9 11 mph 1002.3mb 55f 54f
6:50am 3.5ft 14s 6s 9 11 mph 1002mb 55f 54f
5:50am 3.5ft 15s 5s 9
mph
1001.5mb 55f 54f
4:50am 4ft 15s 6s 11 13 mph 1001.3mb 55f 54f
3:50am 4ft 15s 5s 11 13 mph 1001.3mb 55f 54f
2:50am 4ft 6s 5s 13 18 mph 1001.4mb 55f 54f
1:50am 4.5ft 7s 6s 13 16 mph 1001.6mb 55f 54f
12:50am 4.5ft 16s 6s 13 16 mph 1002mb 55f 54f
Mon 07/25 11:50pm 4.5ft 6s 6s 11 13 mph 1002.3mb 55f 54f
10:50pm 4ft 7s 6s 13 16 mph 1002.5mb 55f 54f
9:50pm 4.5ft 16s 6s 13 16 mph 1002.7mb 55f 54f
8:50pm 3.5ft 15s 7s 11 13 mph 1002.8mb 55f 54f
7:50pm 4ft 16s 7s 11 13 mph 1003.2mb 55f 54f
5:50pm 4ft 16s 6s 11 13 mph 1003.6mb 55f 53f
4:50pm 4ft 16s 6s 9 11 mph 1003.6mb 55f 53f
3:50pm 4.5ft 15s 6s 9 11 mph 1003.8mb 55f 53f
2:50pm 4.5ft 7s 6s 9 11 mph 1003.9mb 55f 54f
1:50pm 4.5ft 16s 6s 9 11 mph 1004.4mb 55f 54f
12:50pm 5ft 7s 6s 9 11 mph 1004.9mb 55f 54f
11:50am 5ft 7s 6s 9 11 mph 1005.5mb 55f 54f
10:50am 5ft 8s 6s 11
mph
1006.1mb 55f 54f
9:50am 5ft 7s 6s 11 13 mph 1006.6mb 55f 54f
8:50am 5ft 16s 6s 11
mph
1007mb 55f 54f
7:50am 4.5ft 7s 6s 11
mph
1007.5mb 55f 54f
6:50am 4.5ft 8s 6s 11 13 mph 1007.8mb 55f 54f
5:50am 5ft 8s 6s 13 16 mph 1008mb 55f 54f
4:50am 4.5ft 7s 6s 16 18 mph 1008.3mb 55f 54f
3:50am 5ft 7s 5s 16 18 mph 1008.4mb 55f 54f
2:50am 5ft 7s 5s 16 18 mph 1009mb 55f 53f
1:50am 5.5ft 7s 5s 16 20 mph 1009.7mb 55f 53f
12:50am 6ft 7s 6s 18 22 mph 1010.4mb 55f 53f
Sun 07/24 11:50pm 6ft 7s 6s 18 20 mph 1011.1mb 55f 53f
10:50pm 6ft 8s 6s 18 20 mph 1011.8mb 55f 53f
9:50pm 5.5ft 8s 6s 18 22 mph 1012.4mb 55f 53f
8:50pm 5.5ft 8s 5s 18 22 mph 1012.8mb 55f 53f
7:50pm 5ft 8s 6s 20 25 mph 1013.4mb 55f 53f
6:50pm 5ft 8s 6s 16 18 mph 1013.8mb 55f 54f
5:50pm 5ft 7s 6s 16 20 mph 1014.1mb 55f 54f
4:50pm 5ft 7s 6s 16 20 mph 1014.2mb 55f 54f
3:50pm 5ft 8s 6s 16 20 mph 1014.4mb 55f 54f
2:50pm 5ft 8s 6s 16 22 mph 1014.8mb 55f 54f
1:50pm 5.5ft 7s 6s 16 18 mph 1015.3mb 55f 54f
12:50pm 6ft 8s 6s 16 20 mph 1015.5mb 55f 54f
11:50am 6ft 7s 6s 16 18 mph 1016mb 55f 54f
10:50am 6ft 7s 6s 13 16 mph 1016.7mb 55f 54f
9:50am 6ft 7s 6s 16 18 mph 1017mb 55f 54f
8:50am 6ft 8s 6s 16 18 mph 1017.3mb 55f 55f
7:50am 6ft 8s 6s 16 18 mph 1017.7mb 55f 55f
6:50am 6.5ft 8s 6s 13 16 mph 1017.9mb 55f 55f
5:50am 6ft 8s 6s 13 18 mph 1017.9mb 55f 55f
4:50am 6ft 8s 6s 16 18 mph 1017.7mb 55f 55f
3:50am 6ft 9s 6s 16 18 mph 1017.6mb 55f 55f
2:50am 6ft 7s 6s 16 18 mph 1017.7mb 55f 55f
1:50am 6ft 7s 6s 18 20 mph 1017.9mb 55f 55f
Sat 07/23 11:50pm 7ft 9s 6s 16 18 mph 1018.3mb 55f 55f
10:50pm 8ft 9s 6s 16 20 mph 1018.5mb 55f 55f
9:50pm 8ft 9s 7s 16 20 mph 1018.6mb 55f 55f
8:50pm 7.5ft 9s 6s 16 18 mph 1018.6mb 55f 55f
7:50pm 7ft 9s 6s 18 20 mph 1018.6mb 55f 55f
6:50pm 7ft 8s 6s 18 22 mph 1018.6mb 55f 55f
5:50pm 8ft 10s 7s 16 20 mph 1018.9mb 55f 55f
4:50pm 7ft 10s 6s 18 22 mph 1018.5mb 54f 55f